sensor_id;sensor_type;location;lat;lon;timestamp;P1;durP1;ratioP1;P2;durP2;ratioP2
76204;SDS011;64986;55.672;37.628;2022-12-07T00:01:06;5.20;;;2.50;;
76204;SDS011;64986;55.672;37.628;2022-12-07T00:03:33;5.88;;;2.78;;
76204;SDS011;64986;55.672;37.628;2022-12-07T00:05:59;6.28;;;2.33;;
76204;SDS011;64986;55.672;37.628;2022-12-07T00:08:25;9.98;;;3.17;;
76204;SDS011;64986;55.672;37.628;2022-12-07T00:10:52;7.97;;;3.40;;
76204;SDS011;64986;55.672;37.628;2022-12-07T00:13:17;6.82;;;3.20;;
76204;SDS011;64986;55.672;37.628;2022-12-07T00:15:43;9.68;;;3.65;;
76204;SDS011;64986;55.672;37.628;2022-12-07T00:18:09;5.88;;;2.97;;
76204;SDS011;64986;55.672;37.628;2022-12-07T00:20:34;6.30;;;2.47;;
76204;SDS011;64986;55.672;37.628;2022-12-07T00:23:00;7.35;;;2.78;;
76204;SDS011;64986;55.672;37.628;2022-12-07T00:25:25;6.78;;;3.13;;
76204;SDS011;64986;55.672;37.628;2022-12-07T00:27:54;5.88;;;3.17;;
76204;SDS011;64986;55.672;37.628;2022-12-07T00:30:21;5.95;;;2.92;;
76204;SDS011;64986;55.672;37.628;2022-12-07T00:32:48;8.35;;;3.10;;
76204;SDS011;64986;55.672;37.628;2022-12-07T00:35:14;6.47;;;3.10;;
76204;SDS011;64986;55.672;37.628;2022-12-07T00:37:39;9.05;;;3.55;;
76204;SDS011;64986;55.672;37.628;2022-12-07T00:40:05;5.35;;;2.35;;
76204;SDS011;64986;55.672;37.628;2022-12-07T00:42:31;5.10;;;2.78;;
76204;SDS011;64986;55.672;37.628;2022-12-07T00:44:57;6.88;;;2.75;;
76204;SDS011;64986;55.672;37.628;2022-12-07T00:47:22;7.47;;;3.20;;
76204;SDS011;64986;55.672;37.628;2022-12-07T00:49:48;5.63;;;2.75;;
76204;SDS011;64986;55.672;37.628;2022-12-07T00:52:13;9.25;;;2.72;;
76204;SDS011;64986;55.672;37.628;2022-12-07T00:54:39;5.97;;;2.60;;
76204;SDS011;64986;55.672;37.628;2022-12-07T00:57:05;11.00;;;4.20;;
76204;SDS011;64986;55.672;37.628;2022-12-07T00:59:31;7.78;;;2.92;;
76204;SDS011;64986;55.672;37.628;2022-12-07T01:01:56;7.53;;;3.10;;
76204;SDS011;64986;55.672;37.628;2022-12-07T01:04:22;11.13;;;3.65;;
76204;SDS011;64986;55.672;37.628;2022-12-07T01:06:47;8.57;;;3.80;;
76204;SDS011;64986;55.672;37.628;2022-12-07T01:09:13;6.20;;;3.05;;
76204;SDS011;64986;55.672;37.628;2022-12-07T01:11:38;5.30;;;3.08;;
76204;SDS011;64986;55.672;37.628;2022-12-07T01:14:04;7.78;;;3.00;;
76204;SDS011;64986;55.672;37.628;2022-12-07T01:16:30;7.97;;;2.78;;
76204;SDS011;64986;55.672;37.628;2022-12-07T01:18:58;7.05;;;2.45;;
76204;SDS011;64986;55.672;37.628;2022-12-07T01:21:26;7.80;;;3.42;;
76204;SDS011;64986;55.672;37.628;2022-12-07T01:23:54;4.78;;;2.35;;
76204;SDS011;64986;55.672;37.628;2022-12-07T01:26:23;11.23;;;4.53;;
76204;SDS011;64986;55.672;37.628;2022-12-07T01:28:50;8.52;;;3.75;;
76204;SDS011;64986;55.672;37.628;2022-12-07T01:31:17;7.43;;;3.53;;
76204;SDS011;64986;55.672;37.628;2022-12-07T01:33:46;9.15;;;3.53;;
76204;SDS011;64986;55.672;37.628;2022-12-07T01:36:17;10.30;;;3.70;;
76204;SDS011;64986;55.672;37.628;2022-12-07T01:38:44;5.53;;;2.72;;
76204;SDS011;64986;55.672;37.628;2022-12-07T01:41:11;6.88;;;3.83;;
76204;SDS011;64986;55.672;37.628;2022-12-07T01:46:31;4.82;;;2.47;;
76204;SDS011;64986;55.672;37.628;2022-12-07T01:48:56;8.80;;;3.70;;
76204;SDS011;64986;55.672;37.628;2022-12-07T01:51:22;8.60;;;3.50;;
76204;SDS011;64986;55.672;37.628;2022-12-07T01:53:47;7.80;;;3.38;;
76204;SDS011;64986;55.672;37.628;2022-12-07T01:56:15;7.07;;;3.40;;
76204;SDS011;64986;55.672;37.628;2022-12-07T01:58:44;4.47;;;2.47;;
76204;SDS011;64986;55.672;37.628;2022-12-07T02:01:10;10.05;;;3.42;;
76204;SDS011;64986;55.672;37.628;2022-12-07T02:03:40;7.10;;;3.42;;
76204;SDS011;64986;55.672;37.628;2022-12-07T02:06:07;8.35;;;3.60;;
76204;SDS011;64986;55.672;37.628;2022-12-07T02:08:34;6.30;;;2.70;;
76204;SDS011;64986;55.672;37.628;2022-12-07T02:11:00;8.15;;;3.50;;
76204;SDS011;64986;55.672;37.628;2022-12-07T02:13:29;8.32;;;3.55;;
76204;SDS011;64986;55.672;37.628;2022-12-07T02:30:32;9.07;;;3.15;;
76204;SDS011;64986;55.672;37.628;2022-12-07T02:35:38;5.75;;;2.90;;
76204;SDS011;64986;55.672;37.628;2022-12-07T02:43:19;8.88;;;3.83;;
76204;SDS011;64986;55.672;37.628;2022-12-07T02:45:45;5.65;;;2.63;;
76204;SDS011;64986;55.672;37.628;2022-12-07T02:48:13;10.45;;;3.70;;
76204;SDS011;64986;55.672;37.628;2022-12-07T02:50:48;8.02;;;3.25;;
76204;SDS011;64986;55.672;37.628;2022-12-07T03:02:16;6.10;;;2.88;;
76204;SDS011;64986;55.672;37.628;2022-12-07T03:05:26;7.78;;;2.60;;
76204;SDS011;64986;55.672;37.628;2022-12-07T03:16:20;6.35;;;2.38;;
76204;SDS011;64986;55.672;37.628;2022-12-07T03:18:51;5.60;;;2.92;;
76204;SDS011;64986;55.672;37.628;2022-12-07T03:21:25;7.53;;;3.65;;
76204;SDS011;64986;55.672;37.628;2022-12-07T03:23:56;5.78;;;2.67;;
76204;SDS011;64986;55.672;37.628;2022-12-07T03:26:26;6.10;;;3.35;;
76204;SDS011;64986;55.672;37.628;2022-12-07T03:29:00;4.55;;;2.60;;
76204;SDS011;64986;55.672;37.628;2022-12-07T03:31:31;5.88;;;2.97;;
76204;SDS011;64986;55.672;37.628;2022-12-07T03:36:37;8.93;;;3.90;;
76204;SDS011;64986;55.672;37.628;2022-12-07T03:39:26;5.32;;;3.17;;
76204;SDS011;64986;55.672;37.628;2022-12-07T03:41:56;4.82;;;2.20;;
76204;SDS011;64986;55.672;37.628;2022-12-07T03:44:24;7.53;;;3.53;;
76204;SDS011;64986;55.672;37.628;2022-12-07T03:49:46;9.98;;;2.75;;
76204;SDS011;64986;55.672;37.628;2022-12-07T03:57:33;9.02;;;3.75;;
76204;SDS011;64986;55.672;37.628;2022-12-07T04:00:00;8.10;;;2.70;;
76204;SDS011;64986;55.672;37.628;2022-12-07T04:02:29;7.03;;;3.00;;
76204;SDS011;64986;55.672;37.628;2022-12-07T04:04:55;10.63;;;2.95;;
76204;SDS011;64986;55.672;37.628;2022-12-07T04:07:21;11.68;;;4.10;;
76204;SDS011;64986;55.672;37.628;2022-12-07T04:09:46;6.20;;;2.97;;
76204;SDS011;64986;55.672;37.628;2022-12-07T04:12:12;8.88;;;2.97;;
76204;SDS011;64986;55.672;37.628;2022-12-07T04:14:38;7.28;;;2.95;;
76204;SDS011;64986;55.672;37.628;2022-12-07T04:17:03;6.65;;;3.60;;
76204;SDS011;64986;55.672;37.628;2022-12-07T04:19:30;7.40;;;2.85;;
76204;SDS011;64986;55.672;37.628;2022-12-07T04:21:58;10.40;;;2.72;;
76204;SDS011;64986;55.672;37.628;2022-12-07T04:24:25;9.95;;;3.03;;
76204;SDS011;64986;55.672;37.628;2022-12-07T04:26:50;7.30;;;3.17;;
76204;SDS011;64986;55.672;37.628;2022-12-07T04:29:16;5.65;;;2.70;;
76204;SDS011;64986;55.672;37.628;2022-12-07T04:31:43;4.85;;;2.60;;
76204;SDS011;64986;55.672;37.628;2022-12-07T04:34:09;7.28;;;2.47;;
76204;SDS011;64986;55.672;37.628;2022-12-07T04:36:35;6.57;;;2.40;;
76204;SDS011;64986;55.672;37.628;2022-12-07T04:39:02;6.10;;;2.92;;
76204;SDS011;64986;55.672;37.628;2022-12-07T04:41:29;5.45;;;2.85;;
76204;SDS011;64986;55.672;37.628;2022-12-07T04:43:54;10.48;;;3.80;;
76204;SDS011;64986;55.672;37.628;2022-12-07T04:46:25;6.78;;;3.72;;
76204;SDS011;64986;55.672;37.628;2022-12-07T04:48:52;7.38;;;3.15;;
76204;SDS011;64986;55.672;37.628;2022-12-07T04:51:19;5.78;;;3.03;;
76204;SDS011;64986;55.672;37.628;2022-12-07T04:53:47;8.35;;;3.30;;
76204;SDS011;64986;55.672;37.628;2022-12-07T04:56:13;10.05;;;3.47;;
76204;SDS011;64986;55.672;37.628;2022-12-07T04:58:40;5.28;;;2.20;;
76204;SDS011;64986;55.672;37.628;2022-12-07T05:01:06;7.35;;;3.53;;
76204;SDS011;64986;55.672;37.628;2022-12-07T05:03:32;13.23;;;4.13;;
76204;SDS011;64986;55.672;37.628;2022-12-07T05:05:57;8.13;;;3.03;;
76204;SDS011;64986;55.672;37.628;2022-12-07T05:08:23;7.70;;;3.63;;
76204;SDS011;64986;55.672;37.628;2022-12-07T05:10:49;9.15;;;3.90;;
76204;SDS011;64986;55.672;37.628;2022-12-07T05:13:15;7.55;;;3.22;;
76204;SDS011;64986;55.672;37.628;2022-12-07T05:15:40;5.93;;;2.72;;
76204;SDS011;64986;55.672;37.628;2022-12-07T05:18:07;7.30;;;3.35;;
76204;SDS011;64986;55.672;37.628;2022-12-07T05:20:34;8.50;;;3.78;;
76204;SDS011;64986;55.672;37.628;2022-12-07T05:22:59;7.13;;;3.78;;
76204;SDS011;64986;55.672;37.628;2022-12-07T05:25:25;6.20;;;2.88;;
76204;SDS011;64986;55.672;37.628;2022-12-07T05:27:50;9.00;;;3.33;;
76204;SDS011;64986;55.672;37.628;2022-12-07T05:30:16;6.50;;;2.45;;
76204;SDS011;64986;55.672;37.628;2022-12-07T05:32:41;7.93;;;3.90;;
76204;SDS011;64986;55.672;37.628;2022-12-07T05:35:07;6.50;;;3.38;;
76204;SDS011;64986;55.672;37.628;2022-12-07T05:37:33;7.20;;;3.42;;
76204;SDS011;64986;55.672;37.628;2022-12-07T05:39:58;6.35;;;2.90;;
76204;SDS011;64986;55.672;37.628;2022-12-07T05:42:24;13.40;;;3.83;;
76204;SDS011;64986;55.672;37.628;2022-12-07T05:44:49;12.70;;;4.22;;
76204;SDS011;64986;55.672;37.628;2022-12-07T05:47:15;8.80;;;4.00;;
76204;SDS011;64986;55.672;37.628;2022-12-07T05:49:41;7.85;;;3.88;;
76204;SDS011;64986;55.672;37.628;2022-12-07T05:52:07;8.85;;;3.78;;
76204;SDS011;64986;55.672;37.628;2022-12-07T05:54:33;9.55;;;3.80;;
76204;SDS011;64986;55.672;37.628;2022-12-07T05:56:58;11.05;;;4.32;;
76204;SDS011;64986;55.672;37.628;2022-12-07T05:59:25;6.15;;;3.00;;
76204;SDS011;64986;55.672;37.628;2022-12-07T06:01:53;9.50;;;3.45;;
76204;SDS011;64986;55.672;37.628;2022-12-07T06:04:24;7.65;;;3.50;;
76204;SDS011;64986;55.672;37.628;2022-12-07T06:06:51;11.00;;;3.97;;
76204;SDS011;64986;55.672;37.628;2022-12-07T06:09:18;11.40;;;4.50;;
76204;SDS011;64986;55.672;37.628;2022-12-07T06:11:44;7.72;;;3.05;;
76204;SDS011;64986;55.672;37.628;2022-12-07T06:14:28;13.52;;;3.53;;
76204;SDS011;64986;55.672;37.628;2022-12-07T06:16:53;9.43;;;3.80;;
76204;SDS011;64986;55.672;37.628;2022-12-07T06:19:19;9.98;;;3.83;;
76204;SDS011;64986;55.672;37.628;2022-12-07T06:21:45;7.30;;;3.88;;
76204;SDS011;64986;55.672;37.628;2022-12-07T06:24:11;8.15;;;3.92;;
76204;SDS011;64986;55.672;37.628;2022-12-07T06:26:37;7.18;;;3.63;;
76204;SDS011;64986;55.672;37.628;2022-12-07T06:29:03;11.63;;;4.85;;
76204;SDS011;64986;55.672;37.628;2022-12-07T06:31:28;17.77;;;7.47;;
76204;SDS011;64986;55.672;37.628;2022-12-07T06:33:58;12.50;;;5.70;;
76204;SDS011;64986;55.672;37.628;2022-12-07T06:36:25;14.82;;;6.05;;
76204;SDS011;64986;55.672;37.628;2022-12-07T06:38:50;14.40;;;6.70;;
76204;SDS011;64986;55.672;37.628;2022-12-07T06:41:16;12.20;;;4.20;;
76204;SDS011;64986;55.672;37.628;2022-12-07T06:43:41;13.27;;;5.32;;
76204;SDS011;64986;55.672;37.628;2022-12-07T06:46:07;18.08;;;6.78;;
76204;SDS011;64986;55.672;37.628;2022-12-07T06:48:33;8.85;;;3.72;;
76204;SDS011;64986;55.672;37.628;2022-12-07T06:50:58;13.15;;;6.15;;
76204;SDS011;64986;55.672;37.628;2022-12-07T06:53:24;11.07;;;4.90;;
76204;SDS011;64986;55.672;37.628;2022-12-07T06:55:49;14.00;;;6.07;;
76204;SDS011;64986;55.672;37.628;2022-12-07T06:58:15;12.32;;;5.00;;
76204;SDS011;64986;55.672;37.628;2022-12-07T07:00:42;11.02;;;4.78;;
76204;SDS011;64986;55.672;37.628;2022-12-07T07:03:08;12.65;;;5.32;;
76204;SDS011;64986;55.672;37.628;2022-12-07T07:05:33;9.63;;;4.13;;
76204;SDS011;64986;55.672;37.628;2022-12-07T07:07:59;13.98;;;5.65;;
76204;SDS011;64986;55.672;37.628;2022-12-07T07:10:24;15.43;;;4.05;;
76204;SDS011;64986;55.672;37.628;2022-12-07T07:12:50;9.80;;;4.88;;
76204;SDS011;64986;55.672;37.628;2022-12-07T07:15:15;7.38;;;3.67;;
76204;SDS011;64986;55.672;37.628;2022-12-07T07:17:41;12.35;;;5.20;;
76204;SDS011;64986;55.672;37.628;2022-12-07T07:20:07;9.70;;;5.00;;
76204;SDS011;64986;55.672;37.628;2022-12-07T07:22:32;11.43;;;4.93;;
76204;SDS011;64986;55.672;37.628;2022-12-07T07:24:58;15.38;;;5.30;;
76204;SDS011;64986;55.672;37.628;2022-12-07T07:27:23;20.65;;;7.90;;
76204;SDS011;64986;55.672;37.628;2022-12-07T07:29:49;15.55;;;6.65;;
76204;SDS011;64986;55.672;37.628;2022-12-07T07:32:14;11.40;;;5.22;;
76204;SDS011;64986;55.672;37.628;2022-12-07T07:34:40;21.75;;;10.23;;
76204;SDS011;64986;55.672;37.628;2022-12-07T07:37:06;14.95;;;6.95;;
76204;SDS011;64986;55.672;37.628;2022-12-07T07:39:31;12.43;;;5.18;;
76204;SDS011;64986;55.672;37.628;2022-12-07T07:41:57;19.48;;;8.38;;
76204;SDS011;64986;55.672;37.628;2022-12-07T07:44:22;17.65;;;6.25;;
76204;SDS011;64986;55.672;37.628;2022-12-07T07:46:48;17.33;;;6.35;;
76204;SDS011;64986;55.672;37.628;2022-12-07T07:49:13;18.38;;;6.10;;
76204;SDS011;64986;55.672;37.628;2022-12-07T07:51:39;10.90;;;4.82;;
76204;SDS011;64986;55.672;37.628;2022-12-07T07:54:04;11.63;;;4.30;;
76204;SDS011;64986;55.672;37.628;2022-12-07T07:56:30;13.93;;;5.25;;
76204;SDS011;64986;55.672;37.628;2022-12-07T07:58:55;15.75;;;4.47;;
76204;SDS011;64986;55.672;37.628;2022-12-07T08:01:21;13.20;;;5.70;;
76204;SDS011;64986;55.672;37.628;2022-12-07T08:03:47;17.75;;;7.03;;
76204;SDS011;64986;55.672;37.628;2022-12-07T08:06:12;15.05;;;5.55;;
76204;SDS011;64986;55.672;37.628;2022-12-07T08:08:38;21.02;;;7.68;;
76204;SDS011;64986;55.672;37.628;2022-12-07T08:11:07;15.00;;;5.68;;
76204;SDS011;64986;55.672;37.628;2022-12-07T08:13:34;15.77;;;5.25;;
76204;SDS011;64986;55.672;37.628;2022-12-07T08:16:04;15.70;;;5.80;;
76204;SDS011;64986;55.672;37.628;2022-12-07T08:18:31;10.35;;;5.30;;
76204;SDS011;64986;55.672;37.628;2022-12-07T08:21:02;15.13;;;6.35;;
76204;SDS011;64986;55.672;37.628;2022-12-07T08:23:28;12.93;;;6.15;;
76204;SDS011;64986;55.672;37.628;2022-12-07T08:25:54;15.25;;;7.15;;
76204;SDS011;64986;55.672;37.628;2022-12-07T08:28:24;13.88;;;6.20;;
76204;SDS011;64986;55.672;37.628;2022-12-07T08:30:50;17.17;;;8.18;;
76204;SDS011;64986;55.672;37.628;2022-12-07T08:33:16;11.32;;;5.43;;
76204;SDS011;64986;55.672;37.628;2022-12-07T08:35:41;10.55;;;4.43;;
76204;SDS011;64986;55.672;37.628;2022-12-07T08:38:07;11.80;;;5.45;;
76204;SDS011;64986;55.672;37.628;2022-12-07T08:40:32;17.63;;;7.95;;
76204;SDS011;64986;55.672;37.628;2022-12-07T08:42:58;9.10;;;4.72;;
76204;SDS011;64986;55.672;37.628;2022-12-07T08:45:24;14.95;;;6.13;;
76204;SDS011;64986;55.672;37.628;2022-12-07T08:47:50;10.52;;;5.50;;
76204;SDS011;64986;55.672;37.628;2022-12-07T08:50:18;13.43;;;5.45;;
76204;SDS011;64986;55.672;37.628;2022-12-07T08:52:44;9.55;;;4.47;;
76204;SDS011;64986;55.672;37.628;2022-12-07T08:55:13;13.95;;;5.18;;
76204;SDS011;64986;55.672;37.628;2022-12-07T08:57:39;11.85;;;4.97;;
76204;SDS011;64986;55.672;37.628;2022-12-07T09:00:05;12.57;;;4.05;;
76204;SDS011;64986;55.672;37.628;2022-12-07T09:02:32;8.52;;;4.95;;
76204;SDS011;64986;55.672;37.628;2022-12-07T09:04:58;10.68;;;4.35;;
76204;SDS011;64986;55.672;37.628;2022-12-07T09:07:27;10.00;;;3.80;;
76204;SDS011;64986;55.672;37.628;2022-12-07T09:09:54;16.08;;;5.82;;
76204;SDS011;64986;55.672;37.628;2022-12-07T09:12:19;11.90;;;4.20;;
76204;SDS011;64986;55.672;37.628;2022-12-07T09:14:45;14.27;;;5.00;;
76204;SDS011;64986;55.672;37.628;2022-12-07T09:17:11;12.55;;;5.10;;
76204;SDS011;64986;55.672;37.628;2022-12-07T09:19:38;9.55;;;4.75;;
76204;SDS011;64986;55.672;37.628;2022-12-07T09:22:04;11.32;;;5.57;;
76204;SDS011;64986;55.672;37.628;2022-12-07T09:24:30;11.15;;;6.15;;
76204;SDS011;64986;55.672;37.628;2022-12-07T09:26:57;10.98;;;5.32;;
76204;SDS011;64986;55.672;37.628;2022-12-07T09:29:23;11.68;;;5.63;;
76204;SDS011;64986;55.672;37.628;2022-12-07T09:31:49;10.88;;;5.18;;
76204;SDS011;64986;55.672;37.628;2022-12-07T09:34:15;13.38;;;6.18;;
76204;SDS011;64986;55.672;37.628;2022-12-07T09:36:40;12.05;;;5.57;;
76204;SDS011;64986;55.672;37.628;2022-12-07T09:39:07;14.90;;;6.32;;
76204;SDS011;64986;55.672;37.628;2022-12-07T09:41:33;12.10;;;4.82;;
76204;SDS011;64986;55.672;37.628;2022-12-07T09:44:09;12.38;;;4.78;;
76204;SDS011;64986;55.672;37.628;2022-12-07T09:46:39;16.77;;;6.50;;
76204;SDS011;64986;55.672;37.628;2022-12-07T09:49:11;11.63;;;5.63;;
76204;SDS011;64986;55.672;37.628;2022-12-07T09:51:41;9.77;;;4.65;;
76204;SDS011;64986;55.672;37.628;2022-12-07T09:54:07;10.63;;;4.35;;
76204;SDS011;64986;55.672;37.628;2022-12-07T09:56:37;13.10;;;5.38;;
76204;SDS011;64986;55.672;37.628;2022-12-07T09:59:03;14.02;;;6.15;;
76204;SDS011;64986;55.672;37.628;2022-12-07T10:01:30;19.00;;;5.88;;
76204;SDS011;64986;55.672;37.628;2022-12-07T10:04:19;10.25;;;4.60;;
76204;SDS011;64986;55.672;37.628;2022-12-07T10:06:51;10.98;;;4.75;;
76204;SDS011;64986;55.672;37.628;2022-12-07T10:09:19;8.30;;;4.00;;
76204;SDS011;64986;55.672;37.628;2022-12-07T10:14:29;14.45;;;6.28;;
76204;SDS011;64986;55.672;37.628;2022-12-07T10:16:57;21.48;;;7.38;;
76204;SDS011;64986;55.672;37.628;2022-12-07T10:19:24;17.33;;;6.90;;
76204;SDS011;64986;55.672;37.628;2022-12-07T10:22:03;13.73;;;6.90;;
76204;SDS011;64986;55.672;37.628;2022-12-07T10:24:34;12.80;;;5.90;;
76204;SDS011;64986;55.672;37.628;2022-12-07T10:27:02;13.00;;;5.82;;
76204;SDS011;64986;55.672;37.628;2022-12-07T10:29:29;17.40;;;7.88;;
76204;SDS011;64986;55.672;37.628;2022-12-07T10:32:41;13.88;;;7.35;;
76204;SDS011;64986;55.672;37.628;2022-12-07T10:34:42;12.48;;;6.30;;
76204;SDS011;64986;55.672;37.628;2022-12-07T10:37:16;13.52;;;5.63;;
76204;SDS011;64986;55.672;37.628;2022-12-07T10:42:27;13.40;;;6.95;;
76204;SDS011;64986;55.672;37.628;2022-12-07T10:45:12;17.90;;;7.15;;
76204;SDS011;64986;55.672;37.628;2022-12-07T10:53:13;14.35;;;6.85;;
76204;SDS011;64986;55.672;37.628;2022-12-07T11:10:12;11.70;;;6.13;;
76204;SDS011;64986;55.672;37.628;2022-12-07T11:12:50;9.63;;;4.95;;
76204;SDS011;64986;55.672;37.628;2022-12-07T11:15:53;13.23;;;7.03;;
76204;SDS011;64986;55.672;37.628;2022-12-07T11:37:24;10.88;;;5.65;;
76204;SDS011;64986;55.672;37.628;2022-12-07T11:39:59;8.50;;;4.90;;
76204;SDS011;64986;55.672;37.628;2022-12-07T11:42:34;11.80;;;6.55;;
76204;SDS011;64986;55.672;37.628;2022-12-07T11:47:46;10.32;;;5.53;;
76204;SDS011;64986;55.672;37.628;2022-12-07T11:50:26;14.30;;;7.78;;
76204;SDS011;64986;55.672;37.628;2022-12-07T11:53:09;16.02;;;8.52;;
76204;SDS011;64986;55.672;37.628;2022-12-07T12:00:39;15.02;;;7.32;;
76204;SDS011;64986;55.672;37.628;2022-12-07T12:03:11;14.45;;;6.00;;
76204;SDS011;64986;55.672;37.628;2022-12-07T12:05:41;12.73;;;6.95;;
76204;SDS011;64986;55.672;37.628;2022-12-07T12:08:16;18.38;;;9.35;;
76204;SDS011;64986;55.672;37.628;2022-12-07T12:21:46;12.32;;;5.78;;
76204;SDS011;64986;55.672;37.628;2022-12-07T12:24:19;17.52;;;7.85;;
76204;SDS011;64986;55.672;37.628;2022-12-07T12:26:51;9.48;;;5.50;;
76204;SDS011;64986;55.672;37.628;2022-12-07T12:29:28;17.98;;;6.95;;
76204;SDS011;64986;55.672;37.628;2022-12-07T12:32:15;9.20;;;4.45;;
76204;SDS011;64986;55.672;37.628;2022-12-07T12:42:47;15.35;;;6.53;;
76204;SDS011;64986;55.672;37.628;2022-12-07T12:45:19;18.85;;;8.23;;
76204;SDS011;64986;55.672;37.628;2022-12-07T12:48:02;12.02;;;5.78;;
76204;SDS011;64986;55.672;37.628;2022-12-07T12:53:02;12.68;;;6.72;;
76204;SDS011;64986;55.672;37.628;2022-12-07T13:00:47;13.73;;;7.25;;
76204;SDS011;64986;55.672;37.628;2022-12-07T13:03:34;12.38;;;5.15;;
76204;SDS011;64986;55.672;37.628;2022-12-07T13:08:44;11.38;;;4.53;;
76204;SDS011;64986;55.672;37.628;2022-12-07T13:11:25;14.02;;;6.47;;
76204;SDS011;64986;55.672;37.628;2022-12-07T13:17:01;14.55;;;6.82;;
76204;SDS011;64986;55.672;37.628;2022-12-07T13:27:37;16.67;;;7.20;;
76204;SDS011;64986;55.672;37.628;2022-12-07T13:30:38;16.23;;;6.03;;
76204;SDS011;64986;55.672;37.628;2022-12-07T13:32:58;12.02;;;5.43;;
76204;SDS011;64986;55.672;37.628;2022-12-07T13:35:34;13.65;;;6.43;;
76204;SDS011;64986;55.672;37.628;2022-12-07T13:38:04;16.50;;;7.03;;
76204;SDS011;64986;55.672;37.628;2022-12-07T13:40:31;14.80;;;6.65;;
76204;SDS011;64986;55.672;37.628;2022-12-07T13:42:57;11.43;;;4.60;;
76204;SDS011;64986;55.672;37.628;2022-12-07T13:45:26;12.82;;;5.75;;
76204;SDS011;64986;55.672;37.628;2022-12-07T13:48:53;11.02;;;5.43;;
76204;SDS011;64986;55.672;37.628;2022-12-07T13:51:14;8.90;;;3.85;;
76204;SDS011;64986;55.672;37.628;2022-12-07T13:56:12;11.75;;;4.82;;
76204;SDS011;64986;55.672;37.628;2022-12-07T13:58:40;12.20;;;6.18;;
76204;SDS011;64986;55.672;37.628;2022-12-07T14:01:05;17.50;;;7.53;;
76204;SDS011;64986;55.672;37.628;2022-12-07T14:03:33;13.82;;;7.00;;
76204;SDS011;64986;55.672;37.628;2022-12-07T14:06:14;13.38;;;6.00;;
76204;SDS011;64986;55.672;37.628;2022-12-07T14:08:42;12.73;;;6.35;;
76204;SDS011;64986;55.672;37.628;2022-12-07T14:11:12;22.40;;;8.20;;
76204;SDS011;64986;55.672;37.628;2022-12-07T14:18:59;12.48;;;5.45;;
76204;SDS011;64986;55.672;37.628;2022-12-07T14:21:30;13.65;;;6.10;;
76204;SDS011;64986;55.672;37.628;2022-12-07T14:26:43;12.75;;;6.30;;
76204;SDS011;64986;55.672;37.628;2022-12-07T14:32:22;10.45;;;4.95;;
76204;SDS011;64986;55.672;37.628;2022-12-07T14:35:03;12.13;;;4.68;;
76204;SDS011;64986;55.672;37.628;2022-12-07T14:37:38;15.90;;;6.68;;
76204;SDS011;64986;55.672;37.628;2022-12-07T14:40:05;8.15;;;5.28;;
76204;SDS011;64986;55.672;37.628;2022-12-07T14:42:32;15.93;;;6.97;;
76204;SDS011;64986;55.672;37.628;2022-12-07T14:44:59;14.98;;;6.32;;
76204;SDS011;64986;55.672;37.628;2022-12-07T14:47:25;16.38;;;7.50;;
76204;SDS011;64986;55.672;37.628;2022-12-07T14:49:51;12.43;;;6.93;;
76204;SDS011;64986;55.672;37.628;2022-12-07T14:52:21;13.48;;;6.35;;
76204;SDS011;64986;55.672;37.628;2022-12-07T14:54:50;16.83;;;6.15;;
76204;SDS011;64986;55.672;37.628;2022-12-07T14:57:16;8.13;;;4.28;;
76204;SDS011;64986;55.672;37.628;2022-12-07T14:59:41;13.30;;;6.60;;
76204;SDS011;64986;55.672;37.628;2022-12-07T15:02:08;13.98;;;5.75;;
76204;SDS011;64986;55.672;37.628;2022-12-07T15:04:36;14.90;;;7.03;;
76204;SDS011;64986;55.672;37.628;2022-12-07T15:07:02;13.27;;;5.63;;
76204;SDS011;64986;55.672;37.628;2022-12-07T15:09:30;11.93;;;5.95;;
76204;SDS011;64986;55.672;37.628;2022-12-07T15:11:55;19.73;;;6.75;;
76204;SDS011;64986;55.672;37.628;2022-12-07T15:14:21;23.20;;;9.15;;
76204;SDS011;64986;55.672;37.628;2022-12-07T15:16:46;14.88;;;7.00;;
76204;SDS011;64986;55.672;37.628;2022-12-07T15:19:19;15.10;;;6.18;;
76204;SDS011;64986;55.672;37.628;2022-12-07T15:21:48;13.98;;;5.78;;
76204;SDS011;64986;55.672;37.628;2022-12-07T15:24:14;15.00;;;6.78;;
76204;SDS011;64986;55.672;37.628;2022-12-07T15:26:40;12.82;;;5.40;;
76204;SDS011;64986;55.672;37.628;2022-12-07T15:29:06;11.90;;;5.85;;
76204;SDS011;64986;55.672;37.628;2022-12-07T15:31:32;14.77;;;5.00;;
76204;SDS011;64986;55.672;37.628;2022-12-07T15:33:59;15.63;;;6.93;;
76204;SDS011;64986;55.672;37.628;2022-12-07T15:36:25;11.88;;;5.45;;
76204;SDS011;64986;55.672;37.628;2022-12-07T15:38:52;12.73;;;6.18;;
76204;SDS011;64986;55.672;37.628;2022-12-07T15:41:19;17.13;;;7.38;;
76204;SDS011;64986;55.672;37.628;2022-12-07T15:43:45;15.98;;;6.28;;
76204;SDS011;64986;55.672;37.628;2022-12-07T15:46:30;16.42;;;6.28;;
76204;SDS011;64986;55.672;37.628;2022-12-07T15:48:56;16.10;;;6.68;;
76204;SDS011;64986;55.672;37.628;2022-12-07T15:51:22;12.38;;;5.28;;
76204;SDS011;64986;55.672;37.628;2022-12-07T15:53:47;10.85;;;5.25;;
76204;SDS011;64986;55.672;37.628;2022-12-07T15:56:13;13.93;;;5.95;;
76204;SDS011;64986;55.672;37.628;2022-12-07T15:58:38;20.02;;;9.13;;
76204;SDS011;64986;55.672;37.628;2022-12-07T16:01:13;15.75;;;6.95;;
76204;SDS011;64986;55.672;37.628;2022-12-07T16:03:40;14.60;;;6.68;;
76204;SDS011;64986;55.672;37.628;2022-12-07T16:06:06;18.23;;;6.72;;
76204;SDS011;64986;55.672;37.628;2022-12-07T16:08:32;13.25;;;5.63;;
76204;SDS011;64986;55.672;37.628;2022-12-07T16:10:58;10.95;;;4.55;;
76204;SDS011;64986;55.672;37.628;2022-12-07T16:13:23;14.80;;;6.68;;
76204;SDS011;64986;55.672;37.628;2022-12-07T16:15:49;16.17;;;6.53;;
76204;SDS011;64986;55.672;37.628;2022-12-07T16:18:14;11.77;;;5.88;;
76204;SDS011;64986;55.672;37.628;2022-12-07T16:20:40;15.30;;;5.65;;
76204;SDS011;64986;55.672;37.628;2022-12-07T16:23:06;12.45;;;5.03;;
76204;SDS011;64986;55.672;37.628;2022-12-07T16:25:32;12.63;;;5.03;;
76204;SDS011;64986;55.672;37.628;2022-12-07T16:27:58;14.75;;;5.95;;
76204;SDS011;64986;55.672;37.628;2022-12-07T16:30:24;11.75;;;5.50;;
76204;SDS011;64986;55.672;37.628;2022-12-07T16:32:50;15.52;;;6.00;;
76204;SDS011;64986;55.672;37.628;2022-12-07T16:35:16;13.80;;;5.20;;
76204;SDS011;64986;55.672;37.628;2022-12-07T16:37:42;10.10;;;5.03;;
76204;SDS011;64986;55.672;37.628;2022-12-07T16:40:08;11.45;;;5.78;;
76204;SDS011;64986;55.672;37.628;2022-12-07T16:42:34;11.20;;;5.13;;
76204;SDS011;64986;55.672;37.628;2022-12-07T16:45:01;15.13;;;6.57;;
76204;SDS011;64986;55.672;37.628;2022-12-07T16:47:27;16.60;;;6.15;;
76204;SDS011;64986;55.672;37.628;2022-12-07T16:49:52;12.50;;;5.38;;
76204;SDS011;64986;55.672;37.628;2022-12-07T16:52:19;13.43;;;5.30;;
76204;SDS011;64986;55.672;37.628;2022-12-07T16:54:45;12.15;;;4.70;;
76204;SDS011;64986;55.672;37.628;2022-12-07T16:57:11;12.20;;;4.90;;
76204;SDS011;64986;55.672;37.628;2022-12-07T16:59:37;17.08;;;6.38;;
76204;SDS011;64986;55.672;37.628;2022-12-07T17:02:02;11.05;;;5.28;;
76204;SDS011;64986;55.672;37.628;2022-12-07T17:04:28;23.33;;;8.00;;
76204;SDS011;64986;55.672;37.628;2022-12-07T17:06:54;17.33;;;6.97;;
76204;SDS011;64986;55.672;37.628;2022-12-07T17:09:19;10.88;;;4.68;;
76204;SDS011;64986;55.672;37.628;2022-12-07T17:11:45;11.93;;;5.65;;